Time;durP1;ratioP1;P1;durP2;ratioP2;P2;SDS_P1;SDS_P2;PMS_P1;PMS_P2;Temp;Humidity;BMP_temperature;BMP_pressure;BME280_temperature;BME280_humidity;BME280_pressure;Samples;Min_cycle;Max_cycle;Signal;HPM_P1;HPM_P2
2021/08/19 00:01:34;;;;;;;9.68;3.13;;;;;;;;;;5071274;28;20083;-59
2021/08/19 00:04:00;;;;;;;5.90;3.28;;;;;;;;;;5091591;28;20570;-59
2021/08/19 00:06:27;;;;;;;6.07;3.10;;;;;;;;;;5092473;28;20056;-59
2021/08/19 00:08:53;;;;;;;6.47;3.60;;;;;;;;;;5074811;28;20075;-59
2021/08/19 00:11:20;;;;;;;4.13;2.78;;;;;;;;;;5091882;28;20442;-59
2021/08/19 00:13:46;;;;;;;5.93;3.70;;;;;;;;;;5092128;28;20039;-59
2021/08/19 00:16:12;;;;;;;7.13;3.25;;;;;;;;;;5092311;28;20071;-59
2021/08/19 00:18:39;;;;;;;6.93;3.30;;;;;;;;;;5092005;28;20067;-59
2021/08/19 00:21:06;;;;;;;6.65;3.42;;;;;;;;;;5092258;28;20059;-59
2021/08/19 00:23:35;;;;;;;6.28;3.67;;;;;;;;;;5091608;28;20091;-59
2021/08/19 00:26:01;;;;;;;5.25;3.42;;;;;;;;;;5091965;28;20101;-59
2021/08/19 00:28:27;;;;;;;6.28;3.70;;;;;;;;;;5092227;28;20040;-58
2021/08/19 00:30:54;;;;;;;7.60;3.47;;;;;;;;;;5091900;28;20091;-59
2021/08/19 00:33:20;;;;;;;4.90;3.58;;;;;;;;;;5091613;28;20048;-59
2021/08/19 00:35:46;;;;;;;7.40;3.15;;;;;;;;;;5081656;28;20044;-59
2021/08/19 00:38:12;;;;;;;5.13;3.22;;;;;;;;;;5090624;28;20123;-59
2021/08/19 00:40:39;;;;;;;5.88;3.67;;;;;;;;;;5092322;28;20402;-59
2021/08/19 00:43:05;;;;;;;5.68;3.55;;;;;;;;;;5092137;28;20380;-59
2021/08/19 00:45:33;;;;;;;5.97;3.63;;;;;;;;;;5092385;28;20072;-59
2021/08/19 00:47:59;;;;;;;7.57;3.08;;;;;;;;;;5092873;28;20044;-59
2021/08/19 00:50:25;;;;;;;5.18;3.20;;;;;;;;;;5092311;28;20495;-59
2021/08/19 00:52:52;;;;;;;5.78;3.17;;;;;;;;;;5092218;28;20071;-59
2021/08/19 00:55:18;;;;;;;6.75;3.13;;;;;;;;;;5092136;28;20040;-59
2021/08/19 00:57:45;;;;;;;4.43;2.80;;;;;;;;;;5092371;28;20040;-59
2021/08/19 01:00:13;;;;;;;5.30;2.67;;;;;;;;;;5092038;28;20071;-59
2021/08/19 01:02:41;;;;;;;4.03;2.45;;;;;;;;;;5093834;28;20044;-59
2021/08/19 01:05:08;;;;;;;5.18;2.80;;;;;;;;;;5096411;28;20044;-58
2021/08/19 01:07:34;;;;;;;3.78;2.55;;;;;;;;;;5096271;28;20056;-59
2021/08/19 01:10:01;;;;;;;5.20;2.45;;;;;;;;;;5096320;28;20458;-59
2021/08/19 01:12:27;;;;;;;6.75;3.05;;;;;;;;;;5096451;28;20068;-59
2021/08/19 01:14:53;;;;;;;5.97;2.58;;;;;;;;;;5096722;28;20068;-59
2021/08/19 01:17:20;;;;;;;5.63;2.72;;;;;;;;;;5096099;28;20044;-59
2021/08/19 01:19:47;;;;;;;4.72;2.88;;;;;;;;;;5095968;28;20044;-59
2021/08/19 01:22:15;;;;;;;7.72;3.20;;;;;;;;;;5096125;28;20080;-59
2021/08/19 01:24:41;;;;;;;5.35;2.45;;;;;;;;;;5075350;28;20047;-58
2021/08/19 01:27:14;;;;;;;7.53;3.00;;;;;;;;;;5096013;28;20040;-58
2021/08/19 01:29:45;;;;;;;5.75;2.63;;;;;;;;;;5094600;28;20055;-59
2021/08/19 01:32:11;;;;;;;3.42;2.03;;;;;;;;;;5095714;28;20114;-59
2021/08/19 01:34:38;;;;;;;7.57;2.95;;;;;;;;;;5095527;28;20036;-58
2021/08/19 01:37:05;;;;;;;3.60;2.45;;;;;;;;;;5096106;28;20075;-59
2021/08/19 01:39:31;;;;;;;5.75;2.53;;;;;;;;;;5095559;28;20044;-59
2021/08/19 01:41:57;;;;;;;6.15;3.47;;;;;;;;;;5095323;28;20048;-59
2021/08/19 01:44:24;;;;;;;5.22;2.13;;;;;;;;;;5095148;28;20067;-59
2021/08/19 01:46:54;;;;;;;4.60;2.67;;;;;;;;;;5095668;28;20514;-58
2021/08/19 01:49:20;;;;;;;6.05;2.78;;;;;;;;;;5095320;28;20051;-59
2021/08/19 01:51:48;;;;;;;4.97;3.00;;;;;;;;;;5095474;28;20067;-60
2021/08/19 01:54:14;;;;;;;4.38;2.60;;;;;;;;;;5095423;28;20048;-58
2021/08/19 01:56:40;;;;;;;4.15;2.30;;;;;;;;;;5077121;28;20108;-60
2021/08/19 01:59:07;;;;;;;4.70;2.83;;;;;;;;;;5095167;28;20497;-59
2021/08/19 02:01:33;;;;;;;4.70;2.80;;;;;;;;;;5095269;28;20036;-59
2021/08/19 02:03:59;;;;;;;6.47;2.55;;;;;;;;;;5095315;28;20047;-59
2021/08/19 02:06:26;;;;;;;10.35;3.08;;;;;;;;;;5095341;28;20490;-59
2021/08/19 02:08:52;;;;;;;8.55;2.78;;;;;;;;;;5095810;28;20087;-59
2021/08/19 02:11:20;;;;;;;4.35;2.42;;;;;;;;;;5095105;28;20127;-60
2021/08/19 02:13:47;;;;;;;4.18;3.00;;;;;;;;;;5093876;28;20044;-59
2021/08/19 02:16:14;;;;;;;4.55;2.55;;;;;;;;;;5094770;28;20063;-59
2021/08/19 02:18:40;;;;;;;6.03;3.13;;;;;;;;;;5094912;28;20086;-59
2021/08/19 02:21:06;;;;;;;5.90;2.88;;;;;;;;;;5095130;28;20075;-59
2021/08/19 02:23:32;;;;;;;4.38;2.35;;;;;;;;;;5095524;28;20044;-58
2021/08/19 02:25:59;;;;;;;5.05;2.58;;;;;;;;;;5094577;28;20040;-59
2021/08/19 02:28:25;;;;;;;5.68;3.20;;;;;;;;;;5094646;28;20091;-59
2021/08/19 02:30:51;;;;;;;9.55;2.75;;;;;;;;;;5094496;28;20048;-59
2021/08/19 02:33:18;;;;;;;5.70;3.30;;;;;;;;;;5094937;28;20087;-59
2021/08/19 02:35:44;;;;;;;6.72;3.30;;;;;;;;;;5095422;28;20097;-59
2021/08/19 02:38:10;;;;;;;4.53;2.80;;;;;;;;;;5094561;28;20044;-59
2021/08/19 02:40:36;;;;;;;7.07;3.95;;;;;;;;;;5094444;28;20039;-59
2021/08/19 02:43:04;;;;;;;4.97;2.85;;;;;;;;;;5093549;28;20507;-59
2021/08/19 02:45:30;;;;;;;3.80;2.40;;;;;;;;;;5094676;28;20036;-58
2021/08/19 02:47:56;;;;;;;4.53;2.97;;;;;;;;;;5090972;28;20621;-59
2021/08/19 02:50:23;;;;;;;5.18;3.17;;;;;;;;;;5094399;28;20080;-59
2021/08/19 02:52:49;;;;;;;7.53;3.45;;;;;;;;;;5094306;28;20040;-58
2021/08/19 02:55:15;;;;;;;4.05;2.67;;;;;;;;;;5069013;28;20040;-58
2021/08/19 02:57:42;;;;;;;3.38;2.45;;;;;;;;;;5094121;28;20451;-59
2021/08/19 03:00:08;;;;;;;5.85;2.90;;;;;;;;;;5093634;28;20044;-59
2021/08/19 03:02:35;;;;;;;4.85;2.85;;;;;;;;;;5094748;28;20054;-59
2021/08/19 03:05:01;;;;;;;8.88;3.75;;;;;;;;;;5093691;28;20086;-59
2021/08/19 03:07:29;;;;;;;4.80;2.83;;;;;;;;;;5094021;28;20059;-59
2021/08/19 03:09:55;;;;;;;4.70;3.00;;;;;;;;;;5094220;28;20039;-58
2021/08/19 03:12:21;;;;;;;6.18;3.47;;;;;;;;;;5093895;28;20105;-59
2021/08/19 03:14:47;;;;;;;4.75;3.17;;;;;;;;;;5093867;28;20047;-59
2021/08/19 03:17:14;;;;;;;7.57;3.15;;;;;;;;;;5093548;28;20051;-59
2021/08/19 03:19:40;;;;;;;4.85;3.10;;;;;;;;;;5072458;28;20067;-59
2021/08/19 03:22:07;;;;;;;7.82;2.58;;;;;;;;;;5093168;28;20043;-59
2021/08/19 03:24:35;;;;;;;4.03;2.65;;;;;;;;;;5093290;28;20182;-58
2021/08/19 03:27:02;;;;;;;5.45;3.35;;;;;;;;;;5093011;28;20067;-58
2021/08/19 03:29:29;;;;;;;4.22;2.88;;;;;;;;;;5093066;28;20044;-59
2021/08/19 03:31:55;;;;;;;6.20;3.28;;;;;;;;;;5092986;28;20556;-59
2021/08/19 03:34:22;;;;;;;9.32;2.80;;;;;;;;;;5092719;28;20068;-59
2021/08/19 03:36:48;;;;;;;4.25;2.72;;;;;;;;;;5093046;28;20063;-59
2021/08/19 03:39:15;;;;;;;5.18;2.70;;;;;;;;;;5092360;28;20440;-59
2021/08/19 03:41:41;;;;;;;4.75;2.97;;;;;;;;;;5091778;28;20068;-59
2021/08/19 03:44:09;;;;;;;3.83;2.72;;;;;;;;;;5091816;28;20402;-59
2021/08/19 03:46:38;;;;;;;3.80;2.58;;;;;;;;;;5093214;28;20491;-60
2021/08/19 03:49:05;;;;;;;3.60;2.40;;;;;;;;;;5092776;28;20086;-59
2021/08/19 03:51:31;;;;;;;8.40;3.17;;;;;;;;;;5093309;28;20040;-58
2021/08/19 03:53:58;;;;;;;4.93;2.65;;;;;;;;;;5093930;28;20499;-59
2021/08/19 03:56:28;;;;;;;7.82;2.35;;;;;;;;;;5093031;28;20073;-59
2021/08/19 03:58:55;;;;;;;7.07;3.30;;;;;;;;;;5092997;28;20093;-59
2021/08/19 04:01:22;;;;;;;6.00;2.80;;;;;;;;;;5091799;28;20044;-59
2021/08/19 04:03:48;;;;;;;5.78;2.88;;;;;;;;;;5093061;28;20097;-59
2021/08/19 04:06:14;;;;;;;5.32;3.30;;;;;;;;;;5080471;28;20097;-59
2021/08/19 04:08:41;;;;;;;6.72;3.08;;;;;;;;;;5089709;28;20043;-59
2021/08/19 04:11:07;;;;;;;3.75;2.47;;;;;;;;;;5095133;28;20083;-59
2021/08/19 04:13:34;;;;;;;5.10;3.10;;;;;;;;;;5091481;28;20075;-59
2021/08/19 04:16:01;;;;;;;4.45;2.53;;;;;;;;;;5082427;28;20043;-58
2021/08/19 04:18:27;;;;;;;4.95;2.97;;;;;;;;;;5091625;28;20076;-59
2021/08/19 04:20:53;;;;;;;6.30;3.38;;;;;;;;;;5082213;28;20083;-59
2021/08/19 04:23:20;;;;;;;5.70;2.72;;;;;;;;;;5067795;28;20079;-59
2021/08/19 04:25:46;;;;;;;5.03;2.88;;;;;;;;;;5085814;28;20071;-59
2021/08/19 04:28:12;;;;;;;5.43;3.03;;;;;;;;;;5091335;28;20052;-59
2021/08/19 04:30:39;;;;;;;4.60;2.60;;;;;;;;;;5078155;28;20067;-59
2021/08/19 04:33:05;;;;;;;5.13;3.08;;;;;;;;;;5080866;28;20141;-59
2021/08/19 04:35:32;;;;;;;4.45;3.00;;;;;;;;;;5085038;28;20102;-59
2021/08/19 04:37:59;;;;;;;5.22;2.75;;;;;;;;;;5084625;28;20433;-59
2021/08/19 04:40:25;;;;;;;4.85;2.40;;;;;;;;;;5082922;28;20116;-58
2021/08/19 04:42:51;;;;;;;6.00;2.95;;;;;;;;;;5080334;28;20052;-59
2021/08/19 04:45:18;;;;;;;5.35;3.00;;;;;;;;;;5083724;28;20437;-59
2021/08/19 04:47:44;;;;;;;4.70;2.83;;;;;;;;;;5072420;28;20064;-59
2021/08/19 04:50:10;;;;;;;4.60;3.05;;;;;;;;;;5086413;28;20094;-59
2021/08/19 04:52:37;;;;;;;8.07;3.22;;;;;;;;;;5082873;28;20565;-60
2021/08/19 04:55:03;;;;;;;5.45;2.88;;;;;;;;;;5060773;28;20131;-59
2021/08/19 04:57:29;;;;;;;4.13;2.60;;;;;;;;;;5079528;28;20043;-59
2021/08/19 04:59:56;;;;;;;5.45;2.58;;;;;;;;;;5080397;28;20123;-59
2021/08/19 05:02:22;;;;;;;5.15;2.75;;;;;;;;;;5083641;28;20075;-60
2021/08/19 05:04:48;;;;;;;5.20;2.58;;;;;;;;;;5084126;28;20411;-59
2021/08/19 05:07:14;;;;;;;4.30;2.70;;;;;;;;;;5081432;28;20048;-59
2021/08/19 05:09:41;;;;;;;8.20;2.55;;;;;;;;;;5080001;28;20538;-59
2021/08/19 05:12:08;;;;;;;3.20;2.17;;;;;;;;;;5080632;28;20064;-59
2021/08/19 05:14:34;;;;;;;4.85;2.85;;;;;;;;;;5083779;28;20070;-59
2021/08/19 05:17:01;;;;;;;3.22;1.55;;;;;;;;;;5087967;28;20075;-60
2021/08/19 05:19:27;;;;;;;3.42;2.35;;;;;;;;;;5090084;28;20073;-59
2021/08/19 05:21:53;;;;;;;5.10;2.58;;;;;;;;;;5079302;28;20035;-60
2021/08/19 05:24:20;;;;;;;3.28;2.20;;;;;;;;;;5080018;28;20092;-59
2021/08/19 05:26:46;;;;;;;3.78;2.40;;;;;;;;;;5082524;28;20044;-59
2021/08/19 05:29:12;;;;;;;9.52;2.50;;;;;;;;;;5084690;28;20660;-59
2021/08/19 05:31:39;;;;;;;4.57;2.60;;;;;;;;;;5084731;28;20063;-59
2021/08/19 05:34:08;;;;;;;7.90;2.22;;;;;;;;;;5079966;28;20040;-59
2021/08/19 05:36:35;;;;;;;3.55;2.20;;;;;;;;;;5079788;28;20548;-59
2021/08/19 05:39:03;;;;;;;3.92;2.25;;;;;;;;;;5080247;28;20071;-59
2021/08/19 05:41:29;;;;;;;5.75;2.60;;;;;;;;;;5084397;28;20047;-60
2021/08/19 05:43:56;;;;;;;5.82;2.35;;;;;;;;;;5084805;28;20127;-60
2021/08/19 05:46:22;;;;;;;3.50;2.08;;;;;;;;;;5082018;28;20502;-60
2021/08/19 05:48:48;;;;;;;4.03;2.42;;;;;;;;;;5081250;28;20483;-61
2021/08/19 05:51:16;;;;;;;4.75;2.45;;;;;;;;;;5094692;28;20051;-60
2021/08/19 05:53:42;;;;;;;4.35;2.55;;;;;;;;;;5092067;28;20056;-60
2021/08/19 05:56:09;;;;;;;6.63;2.17;;;;;;;;;;5094099;28;20493;-60
2021/08/19 05:58:35;;;;;;;4.63;2.15;;;;;;;;;;5094758;28;20042;-60
2021/08/19 06:01:02;;;;;;;3.20;2.17;;;;;;;;;;5094939;28;20403;-60
2021/08/19 06:03:28;;;;;;;4.05;2.40;;;;;;;;;;5094726;28;20048;-60
2021/08/19 06:05:54;;;;;;;6.72;2.28;;;;;;;;;;5095411;28;20044;-59
2021/08/19 06:08:20;;;;;;;3.72;2.15;;;;;;;;;;5089233;28;20130;-61
2021/08/19 06:10:47;;;;;;;5.70;2.65;;;;;;;;;;5085298;28;20040;-61
2021/08/19 06:13:13;;;;;;;5.25;2.50;;;;;;;;;;5089801;28;20043;-61
2021/08/19 06:15:40;;;;;;;3.60;2.20;;;;;;;;;;5092934;28;20604;-61
2021/08/19 06:18:06;;;;;;;3.92;2.38;;;;;;;;;;5091186;28;20052;-59
2021/08/19 06:20:33;;;;;;;3.10;2.08;;;;;;;;;;5089272;28;20093;-61
2021/08/19 06:22:59;;;;;;;3.50;2.10;;;;;;;;;;5089667;28;20661;-61
2021/08/19 06:25:26;;;;;;;3.15;2.30;;;;;;;;;;5093954;28;20047;-61
2021/08/19 06:27:53;;;;;;;3.95;2.28;;;;;;;;;;5073085;28;20488;-61
2021/08/19 06:30:21;;;;;;;3.17;1.90;;;;;;;;;;5092825;28;20465;-60
2021/08/19 06:32:47;;;;;;;3.72;2.05;;;;;;;;;;5090078;28;20105;-61
2021/08/19 06:35:13;;;;;;;3.58;2.30;;;;;;;;;;5091630;28;20105;-62
2021/08/19 06:37:40;;;;;;;4.05;2.10;;;;;;;;;;5092165;28;20506;-61
2021/08/19 06:40:06;;;;;;;3.17;2.15;;;;;;;;;;5092529;28;20126;-61
2021/08/19 06:42:33;;;;;;;3.38;2.28;;;;;;;;;;5092895;28;20048;-60
2021/08/19 06:44:59;;;;;;;3.20;1.77;;;;;;;;;;5089661;28;20584;-60
2021/08/19 06:47:25;;;;;;;3.80;2.30;;;;;;;;;;5092078;28;20055;-61
2021/08/19 06:49:52;;;;;;;3.63;2.22;;;;;;;;;;5087311;28;20066;-61
2021/08/19 06:52:18;;;;;;;2.63;1.83;;;;;;;;;;5093375;28;20128;-60
2021/08/19 06:54:44;;;;;;;7.07;2.53;;;;;;;;;;5092985;28;20037;-60
2021/08/19 06:57:11;;;;;;;4.03;1.92;;;;;;;;;;5093180;28;20482;-60
2021/08/19 06:59:37;;;;;;;4.13;2.33;;;;;;;;;;5093084;28;20067;-60
2021/08/19 07:02:03;;;;;;;4.80;2.28;;;;;;;;;;5092055;28;20071;-61
2021/08/19 07:04:29;;;;;;;4.68;2.17;;;;;;;;;;5092881;28;20044;-60
2021/08/19 07:06:56;;;;;;;4.70;2.10;;;;;;;;;;5093294;28;20044;-60
2021/08/19 07:09:22;;;;;;;3.75;2.03;;;;;;;;;;5092852;28;20126;-61
2021/08/19 07:11:49;;;;;;;2.47;1.85;;;;;;;;;;5093639;28;20051;-62
2021/08/19 07:14:15;;;;;;;3.58;2.15;;;;;;;;;;5092961;28;20602;-62
2021/08/19 07:16:42;;;;;;;3.63;2.33;;;;;;;;;;5092705;28;20097;-63
2021/08/19 07:19:08;;;;;;;3.17;1.95;;;;;;;;;;5093160;28;20060;-62
2021/08/19 07:21:34;;;;;;;5.35;2.20;;;;;;;;;;5074140;28;20048;-62
2021/08/19 07:24:00;;;;;;;5.97;2.17;;;;;;;;;;5093496;28;20113;-61
2021/08/19 07:26:27;;;;;;;6.50;2.45;;;;;;;;;;5092973;28;20501;-60
2021/08/19 07:28:54;;;;;;;2.40;1.70;;;;;;;;;;5092486;28;20060;-61
2021/08/19 07:31:20;;;;;;;3.08;1.92;;;;;;;;;;5092378;28;20499;-61
2021/08/19 07:33:47;;;;;;;3.28;2.30;;;;;;;;;;5092623;28;20079;-61
2021/08/19 07:36:13;;;;;;;6.38;2.42;;;;;;;;;;5091505;28;20055;-62
2021/08/19 07:38:40;;;;;;;3.78;2.20;;;;;;;;;;5092952;28;20070;-63
2021/08/19 07:41:06;;;;;;;4.13;2.28;;;;;;;;;;5092377;28;20032;-62
2021/08/19 07:43:33;;;;;;;3.45;2.10;;;;;;;;;;5092578;28;20086;-62
2021/08/19 07:45:59;;;;;;;3.50;2.03;;;;;;;;;;5092472;28;20040;-62
2021/08/19 07:48:25;;;;;;;4.10;2.30;;;;;;;;;;5092127;28;20048;-62
2021/08/19 07:50:52;;;;;;;3.67;2.38;;;;;;;;;;5093068;28;20067;-62
2021/08/19 07:53:18;;;;;;;3.50;2.40;;;;;;;;;;5091824;28;20067;-62
2021/08/19 07:55:44;;;;;;;3.30;2.00;;;;;;;;;;5090401;28;20059;-63
2021/08/19 07:58:12;;;;;;;4.82;2.40;;;;;;;;;;5091769;28;20071;-60
2021/08/19 08:00:38;;;;;;;2.97;2.00;;;;;;;;;;5092158;28;20032;-62
2021/08/19 08:03:04;;;;;;;2.63;2.00;;;;;;;;;;5092072;28;20075;-61
2021/08/19 08:05:32;;;;;;;3.30;2.33;;;;;;;;;;5092974;28;20548;-61
2021/08/19 08:08:06;;;;;;;3.50;2.17;;;;;;;;;;5091590;28;20036;-62
2021/08/19 08:10:34;;;;;;;3.60;2.50;;;;;;;;;;5090349;28;20083;-61
2021/08/19 08:13:01;;;;;;;3.47;2.50;;;;;;;;;;5090543;28;20075;-61
2021/08/19 08:15:27;;;;;;;3.42;2.30;;;;;;;;;;5091386;28;20118;-61
2021/08/19 08:17:54;;;;;;;5.57;2.80;;;;;;;;;;5073866;28;20283;-61
2021/08/19 08:20:20;;;;;;;5.15;2.70;;;;;;;;;;5091423;28;20078;-61
2021/08/19 08:22:49;;;;;;;6.82;3.28;;;;;;;;;;5091083;28;20036;-62
2021/08/19 08:25:16;;;;;;;5.00;2.83;;;;;;;;;;5091840;28;20098;-62
2021/08/19 08:27:52;;;;;;;3.85;2.08;;;;;;;;;;5091324;28;20046;-62
2021/08/19 08:30:19;;;;;;;2.80;2.20;;;;;;;;;;5091066;28;20078;-61
2021/08/19 08:32:45;;;;;;;4.82;2.70;;;;;;;;;;5092217;28;20040;-61
2021/08/19 08:35:12;;;;;;;4.32;2.60;;;;;;;;;;5092071;28;20044;-63
2021/08/19 08:37:39;;;;;;;3.95;2.60;;;;;;;;;;5090951;28;20048;-62
2021/08/19 08:40:05;;;;;;;3.10;2.45;;;;;;;;;;5091331;28;20488;-62
2021/08/19 08:42:32;;;;;;;4.60;3.05;;;;;;;;;;5091742;28;20546;-63
2021/08/19 08:44:59;;;;;;;2.92;2.40;;;;;;;;;;5092344;28;20075;-60
2021/08/19 08:47:25;;;;;;;3.78;2.33;;;;;;;;;;5091762;28;20068;-61
2021/08/19 08:49:52;;;;;;;3.38;2.50;;;;;;;;;;5091191;28;20036;-61
2021/08/19 08:52:19;;;;;;;4.63;2.60;;;;;;;;;;5091594;28;20071;-62
2021/08/19 08:54:45;;;;;;;4.70;3.38;;;;;;;;;;5091987;28;20129;-62
2021/08/19 08:57:11;;;;;;;5.00;3.10;;;;;;;;;;5091985;28;20051;-62
2021/08/19 08:59:37;;;;;;;6.90;2.70;;;;;;;;;;5092295;28;20526;-61
2021/08/19 09:02:04;;;;;;;3.95;2.53;;;;;;;;;;5091716;28;20090;-62
2021/08/19 09:04:30;;;;;;;4.63;2.50;;;;;;;;;;5091707;28;20487;-61
2021/08/19 09:06:59;;;;;;;4.38;3.00;;;;;;;;;;5090955;28;20071;-62
2021/08/19 09:09:26;;;;;;;6.38;2.75;;;;;;;;;;5091491;28;20481;-61
2021/08/19 09:11:54;;;;;;;4.88;2.83;;;;;;;;;;5092037;28;20098;-60
2021/08/19 09:14:22;;;;;;;4.50;3.17;;;;;;;;;;5090899;28;20079;-60
2021/08/19 09:16:49;;;;;;;9.88;3.83;;;;;;;;;;5090432;28;20062;-60
2021/08/19 09:19:19;;;;;;;4.35;2.63;;;;;;;;;;5091485;28;20048;-61
2021/08/19 09:21:53;;;;;;;7.07;2.47;;;;;;;;;;5072908;28;20494;-60
2021/08/19 09:24:27;;;;;;;4.27;3.17;;;;;;;;;;5094218;28;20460;-60
2021/08/19 09:26:54;;;;;;;5.85;2.88;;;;;;;;;;5095908;28;20090;-61
2021/08/19 09:29:22;;;;;;;3.30;2.55;;;;;;;;;;5095426;28;20181;-61
2021/08/19 09:31:49;;;;;;;5.80;2.75;;;;;;;;;;5095506;28;20530;-62
2021/08/19 09:34:17;;;;;;;4.15;2.50;;;;;;;;;;5095429;28;20051;-61
2021/08/19 09:36:43;;;;;;;5.25;2.60;;;;;;;;;;5095332;28;20406;-61
2021/08/19 09:39:09;;;;;;;5.53;2.67;;;;;;;;;;5095467;28;20044;-62
2021/08/19 09:41:49;;;;;;;3.83;2.53;;;;;;;;;;5096041;28;20056;-63
2021/08/19 09:44:26;;;;;;;2.72;2.30;;;;;;;;;;5095040;28;20131;-62
2021/08/19 09:46:53;;;;;;;3.88;2.30;;;;;;;;;;5094778;28;20066;-62
2021/08/19 09:49:22;;;;;;;5.85;3.00;;;;;;;;;;5095473;28;20177;-61
2021/08/19 09:52:04;;;;;;;4.03;2.53;;;;;;;;;;5095119;28;20051;-62
2021/08/19 09:54:32;;;;;;;4.80;3.05;;;;;;;;;;5079475;28;20040;-62
2021/08/19 09:56:58;;;;;;;3.85;2.53;;;;;;;;;;5091031;28;20059;-61
2021/08/19 09:59:26;;;;;;;7.13;2.90;;;;;;;;;;5094497;28;20048;-61
2021/08/19 10:01:53;;;;;;;5.43;2.50;;;;;;;;;;5095225;28;20071;-61
2021/08/19 10:04:20;;;;;;;4.32;2.65;;;;;;;;;;5069626;28;20049;-61
2021/08/19 10:06:47;;;;;;;6.18;2.50;;;;;;;;;;5094674;28;20039;-61
2021/08/19 10:09:14;;;;;;;5.97;2.60;;;;;;;;;;5094852;28;20066;-61
2021/08/19 10:11:44;;;;;;;7.30;2.42;;;;;;;;;;5094450;28;20580;-61
2021/08/19 10:14:13;;;;;;;4.15;2.65;;;;;;;;;;5093185;28;20506;-62
2021/08/19 10:16:40;;;;;;;3.75;1.98;;;;;;;;;;5094019;28;20064;-61
2021/08/19 10:19:08;;;;;;;3.47;2.33;;;;;;;;;;5093951;28;20048;-60
2021/08/19 10:21:36;;;;;;;4.32;2.85;;;;;;;;;;5094496;28;20036;-62
2021/08/19 10:24:03;;;;;;;2.90;2.20;;;;;;;;;;5094713;28;20071;-61
2021/08/19 10:26:30;;;;;;;4.22;2.70;;;;;;;;;;5093877;28;20040;-62
2021/08/19 10:28:57;;;;;;;4.10;2.40;;;;;;;;;;5093982;28;20052;-62
2021/08/19 10:31:39;;;;;;;4.30;2.67;;;;;;;;;;5067650;28;20064;-61
2021/08/19 10:34:06;;;;;;;5.22;2.42;;;;;;;;;;5094368;28;20036;-61
2021/08/19 10:36:40;;;;;;;4.82;2.80;;;;;;;;;;5085314;28;20083;-65
2021/08/19 10:39:23;;;;;;;4.28;2.47;;;;;;;;;;5094288;28;20044;-63
2021/08/19 10:41:50;;;;;;;7.03;3.08;;;;;;;;;;5094212;28;20478;-63
2021/08/19 10:44:17;;;;;;;4.13;2.38;;;;;;;;;;5073104;28;20063;-62
2021/08/19 10:46:44;;;;;;;3.25;2.40;;;;;;;;;;5093341;28;20056;-61
2021/08/19 10:49:32;;;;;;;3.08;2.30;;;;;;;;;;5092247;28;20507;-61
2021/08/19 10:52:08;;;;;;;4.13;2.13;;;;;;;;;;5093849;28;20040;-61
2021/08/19 10:54:35;;;;;;;6.28;2.70;;;;;;;;;;5077727;28;20064;-61
2021/08/19 10:57:19;;;;;;;5.18;2.78;;;;;;;;;;5093959;28;20050;-63
2021/08/19 10:59:56;;;;;;;3.50;2.50;;;;;;;;;;5092358;28;20475;-63
2021/08/19 11:02:42;;;;;;;4.32;2.65;;;;;;;;;;5093563;28;20488;-63
2021/08/19 11:05:28;;;;;;;4.85;3.13;;;;;;;;;;5087720;28;20072;-62
2021/08/19 11:07:56;;;;;;;6.95;2.47;;;;;;;;;;5075614;28;20091;-63
2021/08/19 11:10:32;;;;;;;4.10;2.72;;;;;;;;;;5093373;28;20048;-63
2021/08/19 11:13:01;;;;;;;6.78;2.38;;;;;;;;;;5094008;28;20138;-63
2021/08/19 11:15:28;;;;;;;5.35;2.85;;;;;;;;;;5093681;28;20064;-62
2021/08/19 11:17:55;;;;;;;4.65;2.90;;;;;;;;;;5093943;28;20507;-62
2021/08/19 11:31:44;;;;;;;3.85;2.38;;;;;;;;;;5110194;27;20392;-62
2021/08/19 11:34:11;;;;;;;4.47;2.63;;;;;;;;;;5090679;28;20071;-63
2021/08/19 11:36:37;;;;;;;4.13;2.50;;;;;;;;;;5091081;28;20048;-63
2021/08/19 11:39:06;;;;;;;3.85;2.72;;;;;;;;;;5090936;28;20050;-62
2021/08/19 11:41:33;;;;;;;4.82;2.70;;;;;;;;;;5089163;28;20060;-62
2021/08/19 11:44:00;;;;;;;3.30;2.47;;;;;;;;;;5090356;28;20044;-62
2021/08/19 11:46:27;;;;;;;6.32;3.08;;;;;;;;;;5093685;28;20048;-61
2021/08/19 11:48:55;;;;;;;7.35;3.28;;;;;;;;;;5073904;28;20063;-60
2021/08/19 11:51:22;;;;;;;5.55;3.15;;;;;;;;;;5091756;28;20128;-60
2021/08/19 12:12:04;;;;;;;5.40;2.97;;;;;;;;;;5109788;27;20387;-61
2021/08/19 12:14:31;;;;;;;6.38;3.40;;;;;;;;;;5090095;28;20052;-60
2021/08/19 12:16:57;;;;;;;4.00;3.28;;;;;;;;;;5091066;28;20629;-60
2021/08/19 12:19:24;;;;;;;4.85;3.20;;;;;;;;;;5091581;28;20043;-61
2021/08/19 12:21:54;;;;;;;4.72;3.03;;;;;;;;;;5089600;28;20529;-59
2021/08/19 12:24:25;;;;;;;12.25;3.28;;;;;;;;;;5088655;28;20048;-59
2021/08/19 12:27:04;;;;;;;4.35;3.03;;;;;;;;;;5093883;28;20074;-59
2021/08/19 12:29:37;;;;;;;5.30;3.20;;;;;;;;;;5092730;28;20499;-59
2021/08/19 12:32:04;;;;;;;5.55;3.03;;;;;;;;;;5091685;28;20083;-60
2021/08/19 12:34:30;;;;;;;6.72;3.35;;;;;;;;;;5091804;28;20040;-59
2021/08/19 12:37:07;;;;;;;4.30;3.40;;;;;;;;;;5090609;28;20048;-59
2021/08/19 12:39:44;;;;;;;3.60;2.92;;;;;;;;;;5070435;28;20106;-60
2021/08/19 12:42:11;;;;;;;3.83;3.30;;;;;;;;;;5088341;28;20091;-60
2021/08/19 12:44:39;;;;;;;5.70;3.28;;;;;;;;;;5090945;28;20058;-60
2021/08/19 12:47:05;;;;;;;10.43;3.42;;;;;;;;;;5085803;28;20052;-60
2021/08/19 12:49:34;;;;;;;4.53;3.20;;;;;;;;;;5087530;28;20052;-60
2021/08/19 12:52:15;;;;;;;7.05;2.80;;;;;;;;;;5087360;28;20495;-60
2021/08/19 12:54:42;;;;;;;7.20;3.20;;;;;;;;;;5072492;28;20051;-57
2021/08/19 12:57:08;;;;;;;6.38;3.08;;;;;;;;;;5088234;28;20107;-59
2021/08/19 12:59:37;;;;;;;4.63;3.20;;;;;;;;;;5086704;28;20131;-60
2021/08/19 13:02:04;;;;;;;6.80;3.50;;;;;;;;;;5087211;28;20048;-61
2021/08/19 13:04:30;;;;;;;14.00;4.18;;;;;;;;;;5087034;28;20491;-60
2021/08/19 13:06:57;;;;;;;9.45;3.85;;;;;;;;;;5086966;28;20040;-60
2021/08/19 13:09:23;;;;;;;4.20;3.10;;;;;;;;;;5087010;28;20530;-59
2021/08/19 13:11:50;;;;;;;5.13;3.10;;;;;;;;;;5081664;28;20462;-58
2021/08/19 13:14:16;;;;;;;5.30;3.17;;;;;;;;;;5073240;28;20040;-60
2021/08/19 13:16:42;;;;;;;4.82;3.63;;;;;;;;;;5070428;28;20460;-58
2021/08/19 13:19:11;;;;;;;6.30;2.60;;;;;;;;;;5063861;28;20072;-59
2021/08/19 13:21:37;;;;;;;7.50;3.15;;;;;;;;;;5063767;28;20044;-60
2021/08/19 13:24:04;;;;;;;5.82;3.33;;;;;;;;;;5073270;28;20120;-61
2021/08/19 13:26:31;;;;;;;5.13;3.38;;;;;;;;;;5071073;28;20079;-61
2021/08/19 13:28:57;;;;;;;7.38;3.67;;;;;;;;;;5070152;28;20050;-61
2021/08/19 13:31:24;;;;;;;4.50;3.03;;;;;;;;;;5065663;28;20056;-62
2021/08/19 13:33:50;;;;;;;4.38;3.38;;;;;;;;;;5064964;28;20091;-61
2021/08/19 13:36:16;;;;;;;8.25;3.70;;;;;;;;;;5057864;28;20044;-61
2021/08/19 13:38:43;;;;;;;6.03;3.45;;;;;;;;;;5067084;28;20075;-61
2021/08/19 13:41:09;;;;;;;4.82;3.17;;;;;;;;;;5062310;28;20080;-59
2021/08/19 13:43:35;;;;;;;5.82;3.53;;;;;;;;;;5061536;28;20036;-61
2021/08/19 13:46:02;;;;;;;9.45;3.20;;;;;;;;;;5066501;28;20131;-61
2021/08/19 13:48:28;;;;;;;5.15;3.40;;;;;;;;;;5058259;28;20123;-61
2021/08/19 13:50:55;;;;;;;9.65;3.67;;;;;;;;;;5057687;28;20408;-59
2021/08/19 13:53:21;;;;;;;6.38;3.65;;;;;;;;;;5064506;28;20041;-60
2021/08/19 13:55:47;;;;;;;6.15;3.42;;;;;;;;;;5062529;28;20594;-60
2021/08/19 13:58:14;;;;;;;4.60;3.33;;;;;;;;;;5058509;28;20040;-60
2021/08/19 14:00:40;;;;;;;10.02;3.65;;;;;;;;;;5060183;28;20065;-61
2021/08/19 14:03:06;;;;;;;6.30;3.65;;;;;;;;;;5052551;28;20073;-61
2021/08/19 14:05:33;;;;;;;6.55;4.15;;;;;;;;;;5055344;28;20448;-60
2021/08/19 14:08:00;;;;;;;3.90;3.15;;;;;;;;;;5061360;28;20098;-61
2021/08/19 14:10:26;;;;;;;6.35;3.20;;;;;;;;;;5069662;28;20091;-62
2021/08/19 14:12:53;;;;;;;8.73;3.42;;;;;;;;;;5070649;28;20048;-62
2021/08/19 14:15:19;;;;;;;5.70;2.97;;;;;;;;;;5071043;28;20079;-60
2021/08/19 14:17:45;;;;;;;10.10;3.25;;;;;;;;;;5073774;28;20102;-60
2021/08/19 14:20:12;;;;;;;3.92;2.78;;;;;;;;;;5070462;28;20079;-62
2021/08/19 14:22:38;;;;;;;10.55;3.60;;;;;;;;;;5071610;28;20043;-60
2021/08/19 14:25:05;;;;;;;6.70;2.60;;;;;;;;;;5068632;28;20080;-60
2021/08/19 14:27:33;;;;;;;8.75;3.67;;;;;;;;;;5071129;28;20063;-60
2021/08/19 14:29:59;;;;;;;4.32;2.80;;;;;;;;;;5073102;28;20040;-60
2021/08/19 14:32:25;;;;;;;9.13;3.45;;;;;;;;;;5071073;28;20088;-61
2021/08/19 14:34:52;;;;;;;5.30;3.25;;;;;;;;;;5071545;28;20059;-59
2021/08/19 14:37:18;;;;;;;3.85;3.05;;;;;;;;;;5069869;28;20377;-61
2021/08/19 14:39:44;;;;;;;9.98;3.15;;;;;;;;;;5069654;28;20065;-61
2021/08/19 14:42:11;;;;;;;4.78;2.92;;;;;;;;;;5071811;28;20079;-58
2021/08/19 14:44:37;;;;;;;5.75;3.03;;;;;;;;;;5072025;28;20537;-62
2021/08/19 14:47:04;;;;;;;3.92;2.78;;;;;;;;;;5070709;28;20440;-60
2021/08/19 14:49:31;;;;;;;5.30;2.95;;;;;;;;;;5070845;28;20438;-59
2021/08/19 14:51:57;;;;;;;3.92;2.83;;;;;;;;;;5071088;28;20106;-60
2021/08/19 14:54:23;;;;;;;3.97;2.95;;;;;;;;;;5069727;28;20080;-60
2021/08/19 14:56:50;;;;;;;6.20;3.38;;;;;;;;;;5072187;28;20059;-59
2021/08/19 14:59:17;;;;;;;4.93;3.17;;;;;;;;;;5070585;28;20052;-60
2021/08/19 15:01:43;;;;;;;4.60;3.20;;;;;;;;;;5071082;28;20518;-60
2021/08/19 15:04:10;;;;;;;5.32;3.13;;;;;;;;;;5070739;28;20492;-59
2021/08/19 15:06:37;;;;;;;4.25;3.30;;;;;;;;;;5070537;28;20041;-59
2021/08/19 15:09:07;;;;;;;4.97;3.33;;;;;;;;;;5071166;28;20513;-59
2021/08/19 15:11:40;;;;;;;6.28;3.03;;;;;;;;;;5071102;28;20052;-60
2021/08/19 15:14:08;;;;;;;4.53;3.20;;;;;;;;;;5070451;28;20079;-61